Sant Hilari Sacalm





Hora UTC 14:15
Temperatura 19.2 ºC
Sòl 15 cm 22.7 ºC
Humitat 57.2 %
Pressió 1018.3 hPa
Pluja 0.2 mm
Velocitat vent 6.7 km/h
Direcció vent ENE
Radiació solar 523.8 W/m²

Dades diàries 2021-09-19



Hora UTC (hivern +1h; estiu +2h)
Temperatura (ºC) Humitat (%) Pressió (hPa) Velocitat vent (km/h) Precipitació (mm) Radiació solar (W/m²)
Hora UTC Aire Sòl 15 cm Humitat Pressió Vel. Dir. Vel. Max Dir. Intent. màx 5 min. Rad. Sol.
00:05 14.9 14.5 98.3 1016.0 1.2 SSW 1.2 SSW 0.0 0.1
00:10 14.9 14.4 98.2 1016.0 0.3 S 6.1 S 0.0 0.1
00:15 14.8 14.3 98.2 1016.0 0.0 NNE 0.0 SSE 0.0 0.1
00:20 14.8 14.2 98.1 1016.1 0.0 NNE 0.0 SSE 0.0 0.1
00:25 14.7 14.2 98.1 1016.1 0.4 SSW 6.1 SSW 0.0 0.1
00:30 14.8 14.2 98.1 1016.2 1.5 SSW 6.1 SSW 0.0 0.1
00:35 14.8 14.2 98.1 1016.2 2.1 SSW 6.1 SSW 0.0 0.1
00:40 14.8 14.0 98.0 1016.2 1.7 SSW 6.1 SSW 0.0 0.1
00:45 14.7 14.0 98.0 1016.2 2.1 SSW 8.8 SSW 0.0 0.1
00:50 14.8 14.0 98.0 1016.3 3.3 SSW 8.8 SSW 0.0 0.1
00:55 14.8 13.9 98.0 1016.2 2.0 SW 8.8 SSW 0.0 0.1
01:00 14.7 13.7 97.9 1016.2 0.3 SSW 6.1 SSW 0.0 0.1
01:05 14.6 13.6 97.7 1016.2 0.0 NNE 0.0 S 0.1 0.1
01:10 14.3 13.2 97.7 1016.2 0.0 NNE 0.0 S 0.0 0.1
01:15 14.2 12.8 97.9 1016.1 0.0 NNE 0.0 S 0.0 0.1
01:20 14.3 12.5 98.3 1016.1 0.6 S 3.4 S 0.0 0.1
01:25 14.4 12.8 98.3 1016.1 0.5 S 3.4 S 0.0 0.1
01:30 14.4 13.1 98.3 1016.1 1.1 SE 6.1 ESE 0.0 0.0
01:35 14.4 13.2 98.2 1016.1 3.2 SSE 6.1 S 0.0 0.1
01:40 14.4 13.3 98.1 1016.0 3.3 SE 6.1 SSE 0.0 0.1
01:45 14.3 13.1 98.0 1016.0 2.7 SSW 8.8 SW 0.0 0.1
01:50 14.4 13.0 98.1 1016.1 4.2 S 8.8 S 0.0 0.1
01:55 14.3 12.9 97.9 1016.1 4.4 SSW 8.8 SSW 0.0 0.0
02:00 14.2 12.6 97.9 1016.0 1.9 S 6.1 SSW 0.0 0.1
02:05 14.1 12.3 97.7 1016.1 0.3 S 6.1 SSE 0.0 0.1
02:10 13.9 12.0 97.8 1016.1 0.0 NNE 0.0 SW 0.0 0.1
02:15 13.8 11.5 97.9 1016.1 0.0 NNE 0.0 SW 0.0 0.1
02:20 13.6 11.2 98.0 1016.1 0.4 W 3.4 WSW 0.0 0.1
02:25 13.6 11.0 98.1 1016.1 1.4 WSW 6.1 WSW 0.0 0.1
02:30 13.5 11.2 98.1 1016.1 3.1 WSW 6.1 WSW 0.0 0.1
02:35 13.4 11.2 98.2 1016.1 2.5 WSW 6.1 SW 0.0 0.1
02:40 13.2 11.2 98.2 1016.1 2.1 SW 6.1 SSW 0.0 0.1
02:45 13.1 11.0 98.2 1016.1 1.7 SW 6.1 W 0.0 0.1
02:50 13.1 10.8 98.6 1016.1 2.3 SW 6.1 SSW 0.0 0.1
02:55 13.0 10.7 98.3 1016.1 3.4 SW 11.5 SW 0.0 0.1
03:00 12.6 10.6 98.0 1016.1 2.7 WSW 8.8 W 0.0 0.1
03:05 12.4 10.4 97.9 1016.1 2.9 WSW 6.1 SSW 0.0 0.1
03:10 12.2 10.2 97.9 1016.1 3.0 WNW 8.8 W 0.0 0.1
03:15 12.1 10.0 97.9 1016.1 4.0 WSW 8.8 SSW 0.0 0.1
03:20 12.0 9.9 97.9 1016.1 5.9 WSW 8.8 WSW 0.0 0.1
03:25 11.8 9.9 97.8 1016.1 5.3 SW 11.5 WSW 0.0 0.1
03:30 11.7 9.8 97.7 1016.1 5.1 W 11.5 SW 0.0 0.1
03:35 11.4 9.6 97.4 1016.1 2.0 WNW 6.1 NNW 0.0 0.1
03:40 11.3 9.2 97.4 1016.2 3.3 WSW 8.8 W 0.0 0.1
03:45 11.3 9.2 97.7 1016.2 4.4 WSW 8.8 SW 0.0 0.1
03:50 11.3 9.4 97.8 1016.2 5.7 WSW 8.8 WSW 0.0 0.1
03:55 11.3 9.4 97.7 1016.2 3.5 WSW 8.8 WSW 0.0 0.1
04:00 11.1 9.3 97.6 1016.2 4.4 WNW 8.8 WNW 0.0 0.1
04:05 11.0 9.2 97.5 1016.2 4.9 W 11.5 WNW 0.0 0.1
04:10 11.1 9.3 97.6 1016.2 6.7 SW 11.5 SW 0.0 0.1
04:15 11.0 9.3 97.1 1016.2 6.9 W 11.5 W 0.0 0.1
04:20 10.8 9.2 97.0 1016.1 5.5 W 11.5 W 0.0 0.1
04:25 10.8 9.2 97.2 1016.1 7.5 WNW 14.2 NW 0.0 0.1
04:30 10.9 9.2 96.8 1016.0 6.8 WNW 14.2 W 0.0 0.1
04:35 10.9 9.1 96.2 1016.0 6.2 W 14.2 W 0.0 0.1
04:40 10.7 9.0 96.1 1016.1 7.4 W 14.2 WSW 0.0 0.1
04:45 10.6 8.9 96.1 1016.1 6.5 W 14.2 WSW 0.0 0.1
04:50 10.8 9.1 96.7 1016.1 8.0 W 16.9 NW 0.0 0.1
04:55 10.8 9.1 96.2 1016.2 4.9 WSW 11.5 W 0.0 0.1
05:00 10.9 9.1 96.0 1016.3 1.6 SSW 6.1 WSW 0.0 0.1
05:05 11.1 9.2 95.8 1016.4 2.6 S 8.8 SSW 0.0 0.1
05:10 11.1 9.1 94.7 1016.5 4.1 NW 8.8 NNW 0.0 0.1
05:15 10.6 9.0 94.8 1016.5 6.2 N 11.5 N 0.0 0.1
05:20 10.6 9.0 96.2 1016.6 4.3 NNW 8.8 NNW 0.0 0.3
05:25 10.9 9.0 96.5 1016.6 2.0 NNW 8.8 NNW 0.0 0.9
05:30 11.1 9.1 96.0 1016.7 2.2 NNW 8.8 N 0.0 1.9
05:35 11.0 9.1 95.2 1016.7 8.1 NNW 14.2 NNW 0.0 3.4
05:40 10.8 9.3 95.7 1016.7 9.2 NNW 14.2 NW 0.1 5.2
05:45 11.0 9.6 96.0 1016.8 9.7 NW 16.9 NW 0.0 7.5
05:50 11.1 9.7 95.8 1016.9 7.2 NW 16.9 NW 0.0 10.1
05:55 11.2 9.7 95.5 1017.0 4.6 NW 11.5 WNW 0.0 13.1
06:00 11.2 9.6 95.3 1017.0 4.4 NW 11.5 NNW 0.0 16.0
06:05 11.2 9.7 95.1 1017.2 7.2 NW 14.2 NW 0.0 18.6
06:10 11.5 9.8 94.2 1017.3 7.8 WNW 14.2 WNW 0.0 35.8
06:15 11.5 9.8 93.5 1017.3 6.4 W 14.2 WNW 0.0 114.8
06:20 11.7 9.8 93.1 1017.3 6.0 WNW 11.5 WSW 0.0 131.4
06:25 11.9 10.2 91.6 1017.4 7.3 WNW 14.2 NNW 0.0 145.6
06:30 12.2 10.8 90.7 1017.5 7.1 WNW 14.2 NNW 0.0 159.2
06:35 12.5 11.3 89.2 1017.5 7.9 WNW 14.2 WNW 0.0 173.7
06:40 12.7 11.7 88.5 1017.5 4.9 NW 8.8 NW 0.0 187.5
06:45 12.6 11.9 89.2 1017.5 6.4 NW 11.5 NNW 0.0 201.0
06:50 12.9 12.2 88.4 1017.5 5.3 WNW 11.5 WNW 0.0 213.5
06:55 13.3 12.4 86.9 1017.5 2.1 WNW 8.8 WNW 0.0 225.8
07:00 13.8 12.8 85.3 1017.5 2.8 WNW 8.8 WNW 0.0 239.1
07:05 13.8 13.4 83.7 1017.6 4.9 WNW 11.5 W 0.0 252.4
07:10 14.2 14.6 82.6 1017.6 3.7 WNW 8.8 WNW 0.0 265.9
07:15 14.6 15.7 81.7 1017.6 1.2 WNW 8.8 WNW 0.0 280.6
07:20 14.5 16.3 81.6 1017.7 5.1 NW 11.5 WNW 0.0 271.8
07:25 14.6 16.8 81.8 1017.8 3.7 NW 11.5 NW 0.0 311.6
07:30 15.5 17.8 78.3 1017.8 0.6 W 6.1 SW 0.0 326.0
07:35 15.9 18.4 75.3 1017.8 2.2 NW 8.8 WNW 0.0 340.9
07:40 15.7 18.8 75.2 1017.9 4.6 WNW 11.5 NW 0.0 355.5
07:45 15.8 19.3 75.4 1017.9 2.3 WNW 8.8 W 0.0 370.2
07:50 16.3 20.0 75.5 1017.9 1.2 W 6.1 W 0.0 384.7
07:55 16.8 20.9 72.5 1017.9 1.5 WSW 6.1 W 0.0 399.4
08:00 17.0 21.9 70.6 1018.0 1.4 WSW 6.1 W 0.0 413.4
08:05 16.9 22.2 63.7 1018.0 1.8 SSW 6.1 SSW 0.0 427.5
08:10 16.9 22.8 64.7 1018.0 2.4 S 6.1 SW 0.0 440.8
08:15 16.8 22.9 65.6 1018.1 4.4 SSE 8.8 SSE 0.0 454.6
08:20 16.9 22.8 67.2 1018.1 1.5 E 6.1 ESE 0.0 467.9
08:25 17.1 22.8 71.1 1018.2 4.3 N 11.5 N 0.0 480.8
08:30 16.8 22.1 71.0 1018.3 3.4 E 8.8 E 0.0 494.5
08:35 16.8 22.2 70.7 1018.4 4.1 NE 8.8 ENE 0.0 512.3
08:40 16.6 22.1 71.7 1018.5 7.5 ENE 11.5 ENE 0.0 497.7
08:45 16.4 22.2 74.3 1018.5 7.0 ENE 11.5 E 0.0 546.8
08:50 16.4 22.1 74.8 1018.6 5.4 ENE 8.8 NE 0.0 562.3
08:55 16.5 22.5 74.6 1018.6 4.0 ENE 11.5 E 0.0 490.4
09:00 16.4 22.5 74.8 1018.6 6.3 ENE 11.5 ENE 0.0 579.0
09:05 16.2 22.2 75.3 1018.7 5.8 NE 11.5 ENE 0.0 571.9
09:10 16.3 22.4 74.5 1018.7 5.5 E 11.5 E 0.0 587.3
09:15 16.5 23.4 71.5 1018.7 3.3 E 8.8 ENE 0.0 598.4
09:20 16.9 23.5 72.2 1018.8 5.5 ENE 11.5 ENE 0.0 606.1
09:25 16.9 23.7 73.4 1018.8 6.2 ENE 14.2 E 0.0 628.4
09:30 16.9 23.9 72.0 1018.8 5.4 E 14.2 E 0.0 624.7
09:35 17.1 24.2 71.3 1018.9 3.3 SE 8.8 E 0.0 634.4
09:40 17.9 25.4 65.7 1018.8 4.0 S 8.8 SW 0.0 644.4
09:45 17.8 25.8 64.1 1018.9 2.8 ESE 6.1 SSE 0.0 653.5
09:50 18.0 25.5 66.0 1018.9 3.5 NE 8.8 NE 0.0 661.4
09:55 17.9 25.5 67.2 1018.9 6.6 E 14.2 E 0.0 668.2
10:00 17.5 24.4 66.7 1019.0 9.3 E 16.9 ENE 0.0 676.5
10:05 17.6 24.5 66.5 1018.9 6.0 E 11.5 SE 0.0 681.7
10:10 17.7 24.7 66.0 1018.9 6.3 ENE 16.9 ENE 0.0 648.9
10:15 17.7 24.9 66.4 1018.9 6.2 E 11.5 E 0.0 705.8
10:20 17.8 25.2 66.6 1018.8 9.0 E 16.9 ESE 0.0 712.8
10:25 17.6 25.1 66.2 1018.8 8.2 E 14.2 ESE 0.0 715.2
10:30 17.8 25.1 66.3 1018.8 5.7 ENE 14.2 ENE 0.0 743.0
10:35 17.9 25.1 63.8 1018.8 8.5 E 14.2 SE 0.0 760.8
10:40 17.9 24.4 63.4 1018.8 8.2 ENE 19.6 NE 0.0 384.5
10:45 17.7 24.0 63.4 1018.8 7.7 E 16.9 ENE 0.0 747.9
10:50 17.8 24.0 62.5 1018.8 8.0 ENE 11.5 ENE 0.0 550.4
10:55 17.5 22.8 63.4 1018.8 7.7 E 14.2 E 0.0 463.3
11:00 17.6 23.4 63.0 1018.8 7.3 E 14.2 SSE 0.0 767.3
11:05 18.2 25.0 62.9 1018.7 6.1 NE 11.5 ENE 0.0 758.0
11:10 18.8 25.6 60.6 1018.7 7.3 E 16.9 ENE 0.0 760.2
11:15 18.7 26.1 58.2 1018.8 6.2 ENE 14.2 ENE 0.0 759.3
11:20 19.0 26.7 56.7 1018.8 6.2 E 11.5 NE 0.0 765.0
11:25 18.8 26.8 56.6 1018.8 5.8 ENE 11.5 ENE 0.0 762.2
11:30 19.1 26.9 56.2 1018.7 5.5 E 11.5 E 0.0 759.1
11:35 19.1 26.8 54.7 1018.8 7.0 ENE 14.2 E 0.0 767.9
11:40 19.2 27.2 55.3 1018.8 3.6 ENE 11.5 ENE 0.0 777.6
11:45 19.6 27.6 55.2 1018.7 6.1 ENE 14.2 ENE 0.0 781.8
11:50 19.5 27.1 54.6 1018.8 6.9 ENE 14.2 E 0.0 777.7
11:55 19.8 27.4 52.5 1018.7 6.6 E 14.2 NE 0.0 815.0
12:00 20.0 27.8 52.7 1018.7 7.3 E 14.2 ESE 0.0 858.0
12:05 20.0 28.2 54.6 1018.7 6.0 NE 14.2 NE 0.0 712.2
12:10 19.9 26.9 52.5 1018.7 4.7 NE 11.5 NE 0.0 577.9
12:15 20.0 27.0 51.8 1018.7 5.6 ENE 11.5 ENE 0.0 585.8
12:20 19.8 25.3 52.2 1018.7 7.0 E 14.2 NNE 0.0 169.8
12:25 19.2 23.6 53.2 1018.8 5.5 SE 11.5 SE 0.0 195.0
12:30 18.9 22.7 53.0 1018.7 3.7 ESE 11.5 SE 0.0 292.1
12:35 18.8 21.8 55.4 1018.7 4.5 ENE 8.8 E 0.0 215.4
12:40 18.8 21.1 54.9 1018.6 5.5 E 11.5 ESE 0.0 154.1
12:45 18.7 20.7 56.2 1018.6 7.7 E 11.5 E 0.0 176.7
12:50 18.7 21.0 56.0 1018.6 5.5 E 11.5 ESE 0.0 532.2
12:55 19.0 22.8 55.6 1018.6 5.3 ENE 8.8 ENE 0.0 678.1
13:00 19.4 24.1 55.1 1018.5 5.7 E 11.5 E 0.0 621.6
13:05 19.7 24.5 52.2 1018.5 8.2 ENE 14.2 ENE 0.0 292.9
13:10 19.4 23.1 52.8 1018.5 6.9 ENE 16.9 ENE 0.0 244.6
13:15 19.0 22.3 54.6 1018.5 10.1 E 16.9 E 0.0 207.6
13:20 18.7 21.7 55.5 1018.5 9.4 E 19.6 ENE 0.0 499.4
13:25 18.9 22.1 55.6 1018.5 7.8 ENE 14.2 ENE 0.0 267.3
13:30 18.8 21.5 55.9 1018.4 6.2 ENE 16.9 E 0.0 221.7
13:35 18.8 21.1 55.8 1018.4 5.8 E 11.5 E 0.0 324.4
13:40 18.8 21.3 55.5 1018.4 7.5 E 14.2 ESE 0.0 302.4
13:45 18.8 21.0 55.7 1018.4 9.2 E 16.9 E 0.0 212.9
13:50 18.6 20.1 56.1 1018.4 6.2 E 11.5 E 0.0 146.1
13:55 18.5 19.9 57.5 1018.3 6.1 E 11.5 E 0.0 296.3
14:00 18.6 20.6 57.4 1018.3 8.1 E 14.2 E 0.0 534.7
14:05 18.8 21.6 56.9 1018.3 7.8 E 11.5 E 0.0 631.6
14:10 19.0 22.2 57.1 1018.3 7.9 ENE 14.2 ENE 0.0 562.4
14:15 19.2 22.7 57.2 1018.3 6.7 ENE 16.9 E 0.0 523.8
Màxima 20.1 28.2 98.6 1019.0 10.1 E 19.6 ENE 0.1 858.0
Mínima 10.5 8.9 51.8 1016.0
Total 0.2